sensor_id;sensor_type;location;lat;lon;timestamp;temperature;humidity
33863;DHT22;20158;51.436;-2.742;2022-12-18T00:02:16;1.00;58.30
33863;DHT22;20158;51.436;-2.742;2022-12-18T00:05:00;1.00;58.40
33863;DHT22;20158;51.436;-2.742;2022-12-18T00:07:44;1.00;58.40
33863;DHT22;20158;51.436;-2.742;2022-12-18T00:10:29;1.00;58.40
33863;DHT22;20158;51.436;-2.742;2022-12-18T00:13:14;1.00;58.50
33863;DHT22;20158;51.436;-2.742;2022-12-18T00:16:04;0.90;58.30
33863;DHT22;20158;51.436;-2.742;2022-12-18T00:18:50;0.90;58.30
33863;DHT22;20158;51.436;-2.742;2022-12-18T00:21:36;0.90;58.40
33863;DHT22;20158;51.436;-2.742;2022-12-18T00:24:21;0.80;58.20
33863;DHT22;20158;51.436;-2.742;2022-12-18T00:27:05;0.80;58.20
33863;DHT22;20158;51.436;-2.742;2022-12-18T00:29:50;0.80;58.20
33863;DHT22;20158;51.436;-2.742;2022-12-18T00:32:35;0.80;58.20
33863;DHT22;20158;51.436;-2.742;2022-12-18T00:35:20;0.80;58.20
33863;DHT22;20158;51.436;-2.742;2022-12-18T00:38:04;0.80;58.20
33863;DHT22;20158;51.436;-2.742;2022-12-18T00:40:50;0.80;58.30
33863;DHT22;20158;51.436;-2.742;2022-12-18T00:43:36;0.80;58.20
33863;DHT22;20158;51.436;-2.742;2022-12-18T00:46:20;0.80;58.30
33863;DHT22;20158;51.436;-2.742;2022-12-18T00:49:06;0.80;58.30
33863;DHT22;20158;51.436;-2.742;2022-12-18T00:51:51;0.80;58.30
33863;DHT22;20158;51.436;-2.742;2022-12-18T00:54:35;0.80;58.30
33863;DHT22;20158;51.436;-2.742;2022-12-18T00:57:20;0.80;58.30
33863;DHT22;20158;51.436;-2.742;2022-12-18T01:00:07;0.80;58.30
33863;DHT22;20158;51.436;-2.742;2022-12-18T01:02:53;0.80;58.30
33863;DHT22;20158;51.436;-2.742;2022-12-18T01:05:40;0.80;58.40
33863;DHT22;20158;51.436;-2.742;2022-12-18T01:08:24;0.90;59.20
33863;DHT22;20158;51.436;-2.742;2022-12-18T01:11:15;1.10;59.30
33863;DHT22;20158;51.436;-2.742;2022-12-18T01:14:00;1.30;59.30
33863;DHT22;20158;51.436;-2.742;2022-12-18T01:16:44;1.40;59.20
33863;DHT22;20158;51.436;-2.742;2022-12-18T01:19:29;1.40;59.10
33863;DHT22;20158;51.436;-2.742;2022-12-18T01:22:14;1.40;59.10
33863;DHT22;20158;51.436;-2.742;2022-12-18T01:24:59;1.40;59.10
33863;DHT22;20158;51.436;-2.742;2022-12-18T01:27:43;1.30;59.00
33863;DHT22;20158;51.436;-2.742;2022-12-18T01:30:28;1.30;59.10
33863;DHT22;20158;51.436;-2.742;2022-12-18T01:33:12;1.30;59.20
33863;DHT22;20158;51.436;-2.742;2022-12-18T01:35:57;1.30;59.30
33863;DHT22;20158;51.436;-2.742;2022-12-18T01:38:41;1.20;59.20
33863;DHT22;20158;51.436;-2.742;2022-12-18T01:41:28;1.20;59.20
33863;DHT22;20158;51.436;-2.742;2022-12-18T01:44:55;1.20;59.30
33863;DHT22;20158;51.436;-2.742;2022-12-18T01:53:19;1.10;59.20
33863;DHT22;20158;51.436;-2.742;2022-12-18T01:56:05;1.10;59.30
33863;DHT22;20158;51.436;-2.742;2022-12-18T01:59:03;1.10;59.30
33863;DHT22;20158;51.436;-2.742;2022-12-18T02:01:49;1.00;59.20
33863;DHT22;20158;51.436;-2.742;2022-12-18T02:04:34;1.00;59.20
33863;DHT22;20158;51.436;-2.742;2022-12-18T02:07:55;1.00;59.20
33863;DHT22;20158;51.436;-2.742;2022-12-18T02:17:20;0.90;59.10
33863;DHT22;20158;51.436;-2.742;2022-12-18T02:20:13;0.90;59.10
33863;DHT22;20158;51.436;-2.742;2022-12-18T02:26:12;0.90;59.10
33863;DHT22;20158;51.436;-2.742;2022-12-18T02:29:14;0.90;59.10
33863;DHT22;20158;51.436;-2.742;2022-12-18T02:32:00;0.90;59.10
33863;DHT22;20158;51.436;-2.742;2022-12-18T02:34:46;0.90;59.10
33863;DHT22;20158;51.436;-2.742;2022-12-18T02:37:34;0.90;59.10
33863;DHT22;20158;51.436;-2.742;2022-12-18T02:40:24;0.90;59.10
33863;DHT22;20158;51.436;-2.742;2022-12-18T02:43:12;0.90;59.10
33863;DHT22;20158;51.436;-2.742;2022-12-18T02:45:59;0.90;59.60
33863;DHT22;20158;51.436;-2.742;2022-12-18T02:48:49;0.90;59.10
33863;DHT22;20158;51.436;-2.742;2022-12-18T02:51:49;1.00;59.20
33863;DHT22;20158;51.436;-2.742;2022-12-18T02:54:50;1.00;59.30
33863;DHT22;20158;51.436;-2.742;2022-12-18T02:57:37;1.00;59.30
33863;DHT22;20158;51.436;-2.742;2022-12-18T03:03:30;1.00;59.20
33863;DHT22;20158;51.436;-2.742;2022-12-18T03:09:12;1.10;59.30
33863;DHT22;20158;51.436;-2.742;2022-12-18T03:12:46;1.10;59.30
33863;DHT22;20158;51.436;-2.742;2022-12-18T03:15:20;1.10;59.30
33863;DHT22;20158;51.436;-2.742;2022-12-18T03:18:32;1.20;59.40
33863;DHT22;20158;51.436;-2.742;2022-12-18T03:21:25;1.20;59.30
33863;DHT22;20158;51.436;-2.742;2022-12-18T03:24:13;1.30;59.40
33863;DHT22;20158;51.436;-2.742;2022-12-18T03:27:02;1.30;59.30
33863;DHT22;20158;51.436;-2.742;2022-12-18T03:30:23;1.40;59.50
33863;DHT22;20158;51.436;-2.742;2022-12-18T03:33:08;1.40;59.50
33863;DHT22;20158;51.436;-2.742;2022-12-18T03:35:56;1.50;59.60
33863;DHT22;20158;51.436;-2.742;2022-12-18T03:38:40;1.50;59.50
33863;DHT22;20158;51.436;-2.742;2022-12-18T03:47:36;1.60;59.70
33863;DHT22;20158;51.436;-2.742;2022-12-18T03:50:46;1.60;59.70
33863;DHT22;20158;51.436;-2.742;2022-12-18T03:56:38;1.70;59.90
33863;DHT22;20158;51.436;-2.742;2022-12-18T03:59:29;1.70;60.40
33863;DHT22;20158;51.436;-2.742;2022-12-18T04:02:16;1.70;59.80
33863;DHT22;20158;51.436;-2.742;2022-12-18T04:05:03;1.80;60.00
33863;DHT22;20158;51.436;-2.742;2022-12-18T04:07:51;1.80;60.00
33863;DHT22;20158;51.436;-2.742;2022-12-18T04:10:39;1.80;60.00
33863;DHT22;20158;51.436;-2.742;2022-12-18T04:13:29;1.90;60.10
33863;DHT22;20158;51.436;-2.742;2022-12-18T04:16:15;1.90;60.10
33863;DHT22;20158;51.436;-2.742;2022-12-18T04:19:01;2.00;60.30
33863;DHT22;20158;51.436;-2.742;2022-12-18T04:21:49;2.00;60.30
33863;DHT22;20158;51.436;-2.742;2022-12-18T04:24:33;2.00;60.20
33863;DHT22;20158;51.436;-2.742;2022-12-18T04:27:34;2.00;60.20
33863;DHT22;20158;51.436;-2.742;2022-12-18T04:30:20;2.00;60.20
33863;DHT22;20158;51.436;-2.742;2022-12-18T04:33:09;2.10;60.40
33863;DHT22;20158;51.436;-2.742;2022-12-18T04:35:53;2.10;60.40
33863;DHT22;20158;51.436;-2.742;2022-12-18T04:38:38;2.10;60.40
33863;DHT22;20158;51.436;-2.742;2022-12-18T04:41:26;2.20;60.50
33863;DHT22;20158;51.436;-2.742;2022-12-18T04:44:11;2.20;60.50
33863;DHT22;20158;51.436;-2.742;2022-12-18T04:46:56;2.20;60.50
33863;DHT22;20158;51.436;-2.742;2022-12-18T04:49:41;2.20;60.50
33863;DHT22;20158;51.436;-2.742;2022-12-18T04:52:26;2.30;60.70
33863;DHT22;20158;51.436;-2.742;2022-12-18T04:55:10;2.30;60.70
33863;DHT22;20158;51.436;-2.742;2022-12-18T04:57:55;2.30;60.70
33863;DHT22;20158;51.436;-2.742;2022-12-18T05:00:40;2.30;60.70
33863;DHT22;20158;51.436;-2.742;2022-12-18T05:03:24;2.30;60.70
33863;DHT22;20158;51.436;-2.742;2022-12-18T05:06:09;2.40;60.90
33863;DHT22;20158;51.436;-2.742;2022-12-18T05:08:54;2.40;60.90
33863;DHT22;20158;51.436;-2.742;2022-12-18T05:11:39;2.40;60.80
33863;DHT22;20158;51.436;-2.742;2022-12-18T05:14:23;2.40;60.80
33863;DHT22;20158;51.436;-2.742;2022-12-18T05:17:08;2.50;61.00
33863;DHT22;20158;51.436;-2.742;2022-12-18T05:19:52;2.50;61.00
33863;DHT22;20158;51.436;-2.742;2022-12-18T05:22:37;2.50;60.90
33863;DHT22;20158;51.436;-2.742;2022-12-18T05:25:22;2.50;60.90
33863;DHT22;20158;51.436;-2.742;2022-12-18T05:28:07;2.60;61.10
33863;DHT22;20158;51.436;-2.742;2022-12-18T05:30:57;2.60;61.10
33863;DHT22;20158;51.436;-2.742;2022-12-18T05:33:41;2.60;61.10
33863;DHT22;20158;51.436;-2.742;2022-12-18T05:36:26;2.60;61.10
33863;DHT22;20158;51.436;-2.742;2022-12-18T05:39:10;2.60;61.00
33863;DHT22;20158;51.436;-2.742;2022-12-18T05:41:55;2.70;61.20
33863;DHT22;20158;51.436;-2.742;2022-12-18T05:44:39;2.70;61.20
33863;DHT22;20158;51.436;-2.742;2022-12-18T05:47:24;2.70;61.20
33863;DHT22;20158;51.436;-2.742;2022-12-18T05:50:09;2.70;61.20
33863;DHT22;20158;51.436;-2.742;2022-12-18T05:52:53;2.80;61.40
33863;DHT22;20158;51.436;-2.742;2022-12-18T05:55:40;2.80;61.40
33863;DHT22;20158;51.436;-2.742;2022-12-18T05:58:25;2.80;61.40
33863;DHT22;20158;51.436;-2.742;2022-12-18T06:01:17;2.80;61.30
33863;DHT22;20158;51.436;-2.742;2022-12-18T06:04:02;2.80;61.30
33863;DHT22;20158;51.436;-2.742;2022-12-18T06:06:46;2.80;61.30
33863;DHT22;20158;51.436;-2.742;2022-12-18T06:09:31;2.90;61.50
33863;DHT22;20158;51.436;-2.742;2022-12-18T06:12:16;2.90;61.50
33863;DHT22;20158;51.436;-2.742;2022-12-18T06:15:01;2.90;61.40
33863;DHT22;20158;51.436;-2.742;2022-12-18T06:17:46;3.00;61.60
33863;DHT22;20158;51.436;-2.742;2022-12-18T06:20:31;3.00;61.60
33863;DHT22;20158;51.436;-2.742;2022-12-18T06:23:15;3.00;61.50
33863;DHT22;20158;51.436;-2.742;2022-12-18T06:26:04;3.10;61.70
33863;DHT22;20158;51.436;-2.742;2022-12-18T06:28:49;3.10;61.70
33863;DHT22;20158;51.436;-2.742;2022-12-18T06:31:33;3.10;61.70
33863;DHT22;20158;51.436;-2.742;2022-12-18T06:34:18;3.10;62.10
33863;DHT22;20158;51.436;-2.742;2022-12-18T06:37:03;3.10;61.60
33863;DHT22;20158;51.436;-2.742;2022-12-18T06:39:47;3.20;61.80
33863;DHT22;20158;51.436;-2.742;2022-12-18T06:42:32;3.20;61.70
33863;DHT22;20158;51.436;-2.742;2022-12-18T06:45:17;3.20;61.70
33863;DHT22;20158;51.436;-2.742;2022-12-18T06:48:01;3.30;61.90
33863;DHT22;20158;51.436;-2.742;2022-12-18T06:50:46;3.20;61.70
33863;DHT22;20158;51.436;-2.742;2022-12-18T06:53:32;3.30;61.90
33863;DHT22;20158;51.436;-2.742;2022-12-18T06:56:16;3.30;61.90
33863;DHT22;20158;51.436;-2.742;2022-12-18T06:59:01;3.30;61.80
33863;DHT22;20158;51.436;-2.742;2022-12-18T07:01:46;3.30;61.80
33863;DHT22;20158;51.436;-2.742;2022-12-18T07:04:31;3.40;62.00
33863;DHT22;20158;51.436;-2.742;2022-12-18T07:07:16;3.40;61.90
33863;DHT22;20158;51.436;-2.742;2022-12-18T07:10:00;3.40;62.00
33863;DHT22;20158;51.436;-2.742;2022-12-18T07:12:45;3.40;62.00
33863;DHT22;20158;51.436;-2.742;2022-12-18T07:15:29;3.40;62.00
33863;DHT22;20158;51.436;-2.742;2022-12-18T07:18:14;3.40;61.90
33863;DHT22;20158;51.436;-2.742;2022-12-18T07:21:03;3.50;62.10
33863;DHT22;20158;51.436;-2.742;2022-12-18T07:23:48;3.50;62.10
33863;DHT22;20158;51.436;-2.742;2022-12-18T07:26:32;3.50;62.10
33863;DHT22;20158;51.436;-2.742;2022-12-18T07:29:17;3.60;62.30
33863;DHT22;20158;51.436;-2.742;2022-12-18T07:32:02;3.60;62.20
33863;DHT22;20158;51.436;-2.742;2022-12-18T07:34:46;3.60;62.20
33863;DHT22;20158;51.436;-2.742;2022-12-18T07:37:31;3.60;62.10
33863;DHT22;20158;51.436;-2.742;2022-12-18T07:40:15;3.70;62.30
33863;DHT22;20158;51.436;-2.742;2022-12-18T07:43:00;3.70;62.30
33863;DHT22;20158;51.436;-2.742;2022-12-18T07:45:45;3.70;62.30
33863;DHT22;20158;51.436;-2.742;2022-12-18T07:48:30;3.80;62.40
33863;DHT22;20158;51.436;-2.742;2022-12-18T07:51:14;3.80;62.40
33863;DHT22;20158;51.436;-2.742;2022-12-18T07:53:59;3.80;62.30
33863;DHT22;20158;51.436;-2.742;2022-12-18T07:56:43;3.80;62.30
33863;DHT22;20158;51.436;-2.742;2022-12-18T07:59:29;3.90;62.50
33863;DHT22;20158;51.436;-2.742;2022-12-18T08:02:13;3.90;62.50
33863;DHT22;20158;51.436;-2.742;2022-12-18T08:04:58;4.00;62.70
33863;DHT22;20158;51.436;-2.742;2022-12-18T08:07:43;4.10;62.80
33863;DHT22;20158;51.436;-2.742;2022-12-18T08:10:28;4.10;62.70
33863;DHT22;20158;51.436;-2.742;2022-12-18T08:13:12;4.10;62.70
33863;DHT22;20158;51.436;-2.742;2022-12-18T08:16:05;4.20;62.80
33863;DHT22;20158;51.436;-2.742;2022-12-18T08:18:51;4.10;62.60
33863;DHT22;20158;51.436;-2.742;2022-12-18T08:21:37;4.10;62.60
33863;DHT22;20158;51.436;-2.742;2022-12-18T08:24:21;4.10;62.60
33863;DHT22;20158;51.436;-2.742;2022-12-18T08:27:06;4.20;62.80
33863;DHT22;20158;51.436;-2.742;2022-12-18T08:29:50;4.10;62.60
33863;DHT22;20158;51.436;-2.742;2022-12-18T08:32:35;4.20;62.80
33863;DHT22;20158;51.436;-2.742;2022-12-18T08:35:19;4.10;62.60
33863;DHT22;20158;51.436;-2.742;2022-12-18T08:38:04;4.20;62.80
33863;DHT22;20158;51.436;-2.742;2022-12-18T08:40:49;4.10;62.60
33863;DHT22;20158;51.436;-2.742;2022-12-18T08:43:34;4.20;62.80
33863;DHT22;20158;51.436;-2.742;2022-12-18T08:46:38;4.20;62.80
33863;DHT22;20158;51.436;-2.742;2022-12-18T08:49:23;4.20;63.00
33863;DHT22;20158;51.436;-2.742;2022-12-18T08:52:08;4.30;63.20
33863;DHT22;20158;51.436;-2.742;2022-12-18T08:54:52;4.40;63.30
33863;DHT22;20158;51.436;-2.742;2022-12-18T08:57:37;4.40;63.40
33863;DHT22;20158;51.436;-2.742;2022-12-18T09:00:22;4.40;63.30
33863;DHT22;20158;51.436;-2.742;2022-12-18T09:03:17;4.40;63.30
33863;DHT22;20158;51.436;-2.742;2022-12-18T09:06:02;4.40;63.30
33863;DHT22;20158;51.436;-2.742;2022-12-18T09:08:46;4.40;63.30
33863;DHT22;20158;51.436;-2.742;2022-12-18T09:11:32;4.40;63.30
33863;DHT22;20158;51.436;-2.742;2022-12-18T09:14:16;4.40;63.30
33863;DHT22;20158;51.436;-2.742;2022-12-18T09:17:01;4.40;63.30
33863;DHT22;20158;51.436;-2.742;2022-12-18T09:19:46;4.40;63.30
33863;DHT22;20158;51.436;-2.742;2022-12-18T09:22:31;4.40;63.30
33863;DHT22;20158;51.436;-2.742;2022-12-18T09:25:15;4.40;63.30
33863;DHT22;20158;51.436;-2.742;2022-12-18T09:28:00;4.40;63.30
33863;DHT22;20158;51.436;-2.742;2022-12-18T09:30:49;4.40;63.30
33863;DHT22;20158;51.436;-2.742;2022-12-18T09:33:37;4.40;63.30
33863;DHT22;20158;51.436;-2.742;2022-12-18T09:36:21;4.40;63.30
33863;DHT22;20158;51.436;-2.742;2022-12-18T09:39:06;4.40;63.60
33863;DHT22;20158;51.436;-2.742;2022-12-18T09:41:52;4.40;63.30
33863;DHT22;20158;51.436;-2.742;2022-12-18T09:44:44;4.50;63.50
33863;DHT22;20158;51.436;-2.742;2022-12-18T09:47:36;4.50;63.50
33863;DHT22;20158;51.436;-2.742;2022-12-18T09:50:38;4.50;63.50
33863;DHT22;20158;51.436;-2.742;2022-12-18T09:53:28;4.50;63.40
33863;DHT22;20158;51.436;-2.742;2022-12-18T09:56:18;4.50;63.40
33863;DHT22;20158;51.436;-2.742;2022-12-18T09:59:04;4.60;63.50
33863;DHT22;20158;51.436;-2.742;2022-12-18T10:01:48;4.60;63.50
33863;DHT22;20158;51.436;-2.742;2022-12-18T10:04:33;4.60;63.40
33863;DHT22;20158;51.436;-2.742;2022-12-18T10:07:32;4.60;63.40
33863;DHT22;20158;51.436;-2.742;2022-12-18T10:13:34;4.70;63.70
33863;DHT22;20158;51.436;-2.742;2022-12-18T10:16:31;4.80;63.80
33863;DHT22;20158;51.436;-2.742;2022-12-18T10:19:20;4.80;63.70
33863;DHT22;20158;51.436;-2.742;2022-12-18T10:25:24;4.90;63.90
33863;DHT22;20158;51.436;-2.742;2022-12-18T10:28:14;4.90;63.90
33863;DHT22;20158;51.436;-2.742;2022-12-18T10:30:59;5.00;64.10
33863;DHT22;20158;51.436;-2.742;2022-12-18T10:33:44;5.00;64.10
33863;DHT22;20158;51.436;-2.742;2022-12-18T10:36:29;5.00;64.00
33863;DHT22;20158;51.436;-2.742;2022-12-18T10:39:21;5.10;64.20
33863;DHT22;20158;51.436;-2.742;2022-12-18T10:42:24;5.10;64.20
33863;DHT22;20158;51.436;-2.742;2022-12-18T10:45:13;5.10;64.20
33863;DHT22;20158;51.436;-2.742;2022-12-18T10:47:58;5.10;64.10
33863;DHT22;20158;51.436;-2.742;2022-12-18T10:50:47;5.20;64.20
33863;DHT22;20158;51.436;-2.742;2022-12-18T10:53:35;5.20;64.20
33863;DHT22;20158;51.436;-2.742;2022-12-18T10:56:20;5.30;64.40
33863;DHT22;20158;51.436;-2.742;2022-12-18T10:59:07;5.30;64.30
33863;DHT22;20158;51.436;-2.742;2022-12-18T11:01:57;5.30;64.30
33863;DHT22;20158;51.436;-2.742;2022-12-18T11:04:51;5.30;64.30
33863;DHT22;20158;51.436;-2.742;2022-12-18T11:07:46;5.30;64.20
33863;DHT22;20158;51.436;-2.742;2022-12-18T11:10:36;5.40;64.40
33863;DHT22;20158;51.436;-2.742;2022-12-18T11:13:24;5.40;64.20
33863;DHT22;20158;51.436;-2.742;2022-12-18T11:16:20;5.40;64.20
33863;DHT22;20158;51.436;-2.742;2022-12-18T11:28:27;5.60;64.50
33863;DHT22;20158;51.436;-2.742;2022-12-18T11:34:17;5.70;64.50
33863;DHT22;20158;51.436;-2.742;2022-12-18T11:37:08;5.70;64.50
33863;DHT22;20158;51.436;-2.742;2022-12-18T11:40:19;5.80;64.60
33863;DHT22;20158;51.436;-2.742;2022-12-18T11:43:13;5.80;64.50
33863;DHT22;20158;51.436;-2.742;2022-12-18T11:46:06;5.90;64.70
33863;DHT22;20158;51.436;-2.742;2022-12-18T11:49:01;6.00;64.80
33863;DHT22;20158;51.436;-2.742;2022-12-18T11:54:34;6.00;64.70
33863;DHT22;20158;51.436;-2.742;2022-12-18T12:00:25;6.10;64.80
33863;DHT22;20158;51.436;-2.742;2022-12-18T12:06:06;6.20;64.90
33863;DHT22;20158;51.436;-2.742;2022-12-18T12:09:02;6.20;64.90
33863;DHT22;20158;51.436;-2.742;2022-12-18T12:14:46;6.30;65.10
33863;DHT22;20158;51.436;-2.742;2022-12-18T12:17:50;6.30;65.10
33863;DHT22;20158;51.436;-2.742;2022-12-18T12:21:01;6.40;65.30
33863;DHT22;20158;51.436;-2.742;2022-12-18T12:23:55;6.40;65.50
33863;DHT22;20158;51.436;-2.742;2022-12-18T12:27:26;6.60;65.70
33863;DHT22;20158;51.436;-2.742;2022-12-18T12:36:16;6.70;65.80
33863;DHT22;20158;51.436;-2.742;2022-12-18T12:39:14;6.70;65.90
33863;DHT22;20158;51.436;-2.742;2022-12-18T12:42:04;6.70;65.80
33863;DHT22;20158;51.436;-2.742;2022-12-18T12:45:16;6.80;66.10
33863;DHT22;20158;51.436;-2.742;2022-12-18T12:48:05;6.70;65.90
33863;DHT22;20158;51.436;-2.742;2022-12-18T12:50:50;6.80;66.10
33863;DHT22;20158;51.436;-2.742;2022-12-18T12:53:37;6.80;66.10
33863;DHT22;20158;51.436;-2.742;2022-12-18T12:56:43;6.90;66.30
33863;DHT22;20158;51.436;-2.742;2022-12-18T13:05:49;6.90;66.30
33863;DHT22;20158;51.436;-2.742;2022-12-18T13:08:53;6.90;66.20
33863;DHT22;20158;51.436;-2.742;2022-12-18T13:11:42;6.90;66.30
33863;DHT22;20158;51.436;-2.742;2022-12-18T13:14:45;7.00;66.40
33863;DHT22;20158;51.436;-2.742;2022-12-18T13:17:30;7.00;66.40
33863;DHT22;20158;51.436;-2.742;2022-12-18T13:20:15;7.00;66.40
33863;DHT22;20158;51.436;-2.742;2022-12-18T13:23:00;7.00;66.50
33863;DHT22;20158;51.436;-2.742;2022-12-18T13:25:45;7.10;66.70
33863;DHT22;20158;51.436;-2.742;2022-12-18T13:34:26;7.30;67.60
33863;DHT22;20158;51.436;-2.742;2022-12-18T13:43:41;7.50;67.70
33863;DHT22;20158;51.436;-2.742;2022-12-18T13:46:46;7.60;67.90
33863;DHT22;20158;51.436;-2.742;2022-12-18T13:49:43;7.60;68.30
33863;DHT22;20158;51.436;-2.742;2022-12-18T13:52:29;7.80;69.00
33863;DHT22;20158;51.436;-2.742;2022-12-18T13:55:19;8.10;69.40
33863;DHT22;20158;51.436;-2.742;2022-12-18T13:58:04;8.40;69.60
33863;DHT22;20158;51.436;-2.742;2022-12-18T14:00:50;8.80;69.80
33863;DHT22;20158;51.436;-2.742;2022-12-18T14:03:34;9.10;69.80
33863;DHT22;20158;51.436;-2.742;2022-12-18T14:06:19;9.40;69.80
33863;DHT22;20158;51.436;-2.742;2022-12-18T14:09:04;9.70;69.70
33863;DHT22;20158;51.436;-2.742;2022-12-18T14:11:50;10.00;69.70
33863;DHT22;20158;51.436;-2.742;2022-12-18T14:14:35;10.30;69.70
33863;DHT22;20158;51.436;-2.742;2022-12-18T14:17:19;10.60;69.60
33863;DHT22;20158;51.436;-2.742;2022-12-18T14:20:04;10.80;69.50
33863;DHT22;20158;51.436;-2.742;2022-12-18T14:22:57;11.00;69.40
33863;DHT22;20158;51.436;-2.742;2022-12-18T14:25:45;11.20;69.30
33863;DHT22;20158;51.436;-2.742;2022-12-18T14:28:30;11.50;69.40
33863;DHT22;20158;51.436;-2.742;2022-12-18T14:31:23;11.60;69.00
33863;DHT22;20158;51.436;-2.742;2022-12-18T14:34:15;11.70;68.90
33863;DHT22;20158;51.436;-2.742;2022-12-18T14:36:59;11.70;69.00
33863;DHT22;20158;51.436;-2.742;2022-12-18T14:39:54;11.90;69.20
33863;DHT22;20158;51.436;-2.742;2022-12-18T14:42:39;12.10;69.30
33863;DHT22;20158;51.436;-2.742;2022-12-18T14:45:34;12.30;69.20
33863;DHT22;20158;51.436;-2.742;2022-12-18T14:48:38;12.40;68.90
33863;DHT22;20158;51.436;-2.742;2022-12-18T14:51:26;12.70;68.90
33863;DHT22;20158;51.436;-2.742;2022-12-18T14:54:16;12.90;68.70
33863;DHT22;20158;51.436;-2.742;2022-12-18T14:57:21;13.00;68.50
33863;DHT22;20158;51.436;-2.742;2022-12-18T15:00:14;13.20;68.40
33863;DHT22;20158;51.436;-2.742;2022-12-18T15:02:59;13.30;68.20
33863;DHT22;20158;51.436;-2.742;2022-12-18T15:05:44;13.40;68.10
33863;DHT22;20158;51.436;-2.742;2022-12-18T15:08:36;13.60;68.10
33863;DHT22;20158;51.436;-2.742;2022-12-18T15:11:35;13.60;67.80
33863;DHT22;20158;51.436;-2.742;2022-12-18T15:14:31;13.60;67.60
33863;DHT22;20158;51.436;-2.742;2022-12-18T15:17:21;13.70;67.70
33863;DHT22;20158;51.436;-2.742;2022-12-18T15:20:10;13.80;67.80
33863;DHT22;20158;51.436;-2.742;2022-12-18T15:22:56;13.80;67.80
33863;DHT22;20158;51.436;-2.742;2022-12-18T15:25:40;13.90;67.90
33863;DHT22;20158;51.436;-2.742;2022-12-18T15:28:39;14.00;68.00
33863;DHT22;20158;51.436;-2.742;2022-12-18T15:31:26;14.10;68.00
33863;DHT22;20158;51.436;-2.742;2022-12-18T15:34:31;14.20;68.00
33863;DHT22;20158;51.436;-2.742;2022-12-18T15:37:16;14.40;68.10
33863;DHT22;20158;51.436;-2.742;2022-12-18T15:40:00;14.50;68.10
33863;DHT22;20158;51.436;-2.742;2022-12-18T15:42:47;14.50;67.80
33863;DHT22;20158;51.436;-2.742;2022-12-18T15:45:50;14.60;67.80
33863;DHT22;20158;51.436;-2.742;2022-12-18T15:48:39;14.70;67.80
33863;DHT22;20158;51.436;-2.742;2022-12-18T15:51:26;14.70;67.50
33863;DHT22;20158;51.436;-2.742;2022-12-18T15:54:13;14.80;67.50
33863;DHT22;20158;51.436;-2.742;2022-12-18T15:57:00;14.90;68.00
33863;DHT22;20158;51.436;-2.742;2022-12-18T16:00:03;14.90;67.30
33863;DHT22;20158;51.436;-2.742;2022-12-18T16:02:48;15.00;67.30
33863;DHT22;20158;51.436;-2.742;2022-12-18T16:05:33;15.10;67.40
33863;DHT22;20158;51.436;-2.742;2022-12-18T16:08:17;15.10;67.20
33863;DHT22;20158;51.436;-2.742;2022-12-18T16:11:02;15.20;67.20
33863;DHT22;20158;51.436;-2.742;2022-12-18T16:13:46;15.20;67.10
33863;DHT22;20158;51.436;-2.742;2022-12-18T16:16:31;15.20;67.10
33863;DHT22;20158;51.436;-2.742;2022-12-18T16:19:16;15.20;67.00
33863;DHT22;20158;51.436;-2.742;2022-12-18T16:22:00;15.20;66.90
33863;DHT22;20158;51.436;-2.742;2022-12-18T16:24:45;15.10;66.70
33863;DHT22;20158;51.436;-2.742;2022-12-18T16:27:29;15.10;66.70
33863;DHT22;20158;51.436;-2.742;2022-12-18T16:30:15;15.10;66.70
33863;DHT22;20158;51.436;-2.742;2022-12-18T16:33:01;15.00;66.60
33863;DHT22;20158;51.436;-2.742;2022-12-18T16:35:51;14.90;66.50
33863;DHT22;20158;51.436;-2.742;2022-12-18T16:38:35;14.90;67.00
33863;DHT22;20158;51.436;-2.742;2022-12-18T16:41:20;14.90;66.60
33863;DHT22;20158;51.436;-2.742;2022-12-18T16:44:17;14.80;66.40
33863;DHT22;20158;51.436;-2.742;2022-12-18T16:47:02;14.80;66.50
33863;DHT22;20158;51.436;-2.742;2022-12-18T16:49:47;14.80;66.50
33863;DHT22;20158;51.436;-2.742;2022-12-18T16:52:35;14.80;66.50
33863;DHT22;20158;51.436;-2.742;2022-12-18T16:55:20;14.80;66.50
33863;DHT22;20158;51.436;-2.742;2022-12-18T16:58:04;14.80;66.50
33863;DHT22;20158;51.436;-2.742;2022-12-18T17:00:49;14.80;66.40
33863;DHT22;20158;51.436;-2.742;2022-12-18T17:03:33;14.80;66.40
33863;DHT22;20158;51.436;-2.742;2022-12-18T17:06:18;14.90;66.60
33863;DHT22;20158;51.436;-2.742;2022-12-18T17:09:06;14.90;66.40
33863;DHT22;20158;51.436;-2.742;2022-12-18T17:11:52;15.00;66.40
33863;DHT22;20158;51.436;-2.742;2022-12-18T17:14:36;14.90;66.10
33863;DHT22;20158;51.436;-2.742;2022-12-18T17:17:21;14.80;66.00
33863;DHT22;20158;51.436;-2.742;2022-12-18T17:20:06;14.70;66.00
33863;DHT22;20158;51.436;-2.742;2022-12-18T17:22:50;14.60;66.10
33863;DHT22;20158;51.436;-2.742;2022-12-18T17:25:38;14.40;66.00
33863;DHT22;20158;51.436;-2.742;2022-12-18T17:28:27;14.30;66.10
33863;DHT22;20158;51.436;-2.742;2022-12-18T17:31:13;14.20;66.20
33863;DHT22;20158;51.436;-2.742;2022-12-18T17:33:58;14.10;66.30
33863;DHT22;20158;51.436;-2.742;2022-12-18T17:36:44;13.90;66.20
33863;DHT22;20158;51.436;-2.742;2022-12-18T17:39:28;13.80;66.20
33863;DHT22;20158;51.436;-2.742;2022-12-18T17:42:13;13.70;66.30
33863;DHT22;20158;51.436;-2.742;2022-12-18T17:44:58;13.60;66.30
33863;DHT22;20158;51.436;-2.742;2022-12-18T17:47:43;13.60;66.50
33863;DHT22;20158;51.436;-2.742;2022-12-18T17:50:27;13.50;66.60
33863;DHT22;20158;51.436;-2.742;2022-12-18T17:53:12;13.50;66.90
33863;DHT22;20158;51.436;-2.742;2022-12-18T17:55:58;13.40;66.90
33863;DHT22;20158;51.436;-2.742;2022-12-18T17:58:45;13.50;67.20
33863;DHT22;20158;51.436;-2.742;2022-12-18T18:01:31;13.50;67.40
33863;DHT22;20158;51.436;-2.742;2022-12-18T18:04:15;13.50;67.50
33863;DHT22;20158;51.436;-2.742;2022-12-18T18:07:00;13.50;67.60
33863;DHT22;20158;51.436;-2.742;2022-12-18T18:09:44;13.50;67.70
33863;DHT22;20158;51.436;-2.742;2022-12-18T18:12:29;13.50;67.80
33863;DHT22;20158;51.436;-2.742;2022-12-18T18:15:32;13.50;68.00
33863;DHT22;20158;51.436;-2.742;2022-12-18T18:18:17;13.50;68.10
33863;DHT22;20158;51.436;-2.742;2022-12-18T18:21:09;13.50;68.20
33863;DHT22;20158;51.436;-2.742;2022-12-18T18:23:53;13.50;68.30
33863;DHT22;20158;51.436;-2.742;2022-12-18T18:26:38;13.50;68.40
33863;DHT22;20158;51.436;-2.742;2022-12-18T18:29:24;13.50;68.50
33863;DHT22;20158;51.436;-2.742;2022-12-18T18:32:09;13.50;68.60
33863;DHT22;20158;51.436;-2.742;2022-12-18T18:34:53;13.50;68.70
33863;DHT22;20158;51.436;-2.742;2022-12-18T18:37:38;13.50;68.70
33863;DHT22;20158;51.436;-2.742;2022-12-18T18:40:23;13.50;68.80
33863;DHT22;20158;51.436;-2.742;2022-12-18T18:43:07;13.50;68.80
33863;DHT22;20158;51.436;-2.742;2022-12-18T18:46:00;13.60;69.00
33863;DHT22;20158;51.436;-2.742;2022-12-18T18:48:44;13.60;69.00
33863;DHT22;20158;51.436;-2.742;2022-12-18T18:51:29;13.60;69.00
33863;DHT22;20158;51.436;-2.742;2022-12-18T18:54:13;13.70;69.10
33863;DHT22;20158;51.436;-2.742;2022-12-18T18:56:58;13.60;69.00
33863;DHT22;20158;51.436;-2.742;2022-12-18T18:59:44;13.70;69.20
33863;DHT22;20158;51.436;-2.742;2022-12-18T19:02:29;13.60;69.10
33863;DHT22;20158;51.436;-2.742;2022-12-18T19:05:14;13.60;69.10